Time;durP1;ratioP1;P1;durP2;ratioP2;P2;SDS_P1;SDS_P2;PMS_P1;PMS_P2;Temp;Humidity;BMP_temperature;BMP_pressure;BME280_temperature;BME280_humidity;BME280_pressure;Samples;Min_cycle;Max_cycle;Signal;HPM_P1;HPM_P2
2024/03/14 00:00:16;;;;;;;9.88;4.63;;;;;;;-2.50;51.75;100823.97;4798451;29;20058;-72
2024/03/14 00:02:46;;;;;;;7.82;3.95;;;;;;;-2.35;52.13;100848.63;4797848;29;20090;-72
2024/03/14 00:05:15;;;;;;;9.57;4.75;;;;;;;-2.35;51.71;100846.09;4784883;29;20035;-72
2024/03/14 00:07:43;;;;;;;13.50;4.95;;;;;;;-2.65;51.65;100812.84;4799106;29;20071;-72
2024/03/14 00:10:09;;;;;;;11.52;4.57;;;;;;;-2.58;52.10;100815.00;4798154;29;20055;-72
2024/03/14 00:12:36;;;;;;;13.65;4.82;;;;;;;-2.45;51.84;100840.41;4797878;29;20493;-72
2024/03/14 00:15:03;;;;;;;11.55;4.85;;;;;;;-2.56;51.64;100831.25;4783649;29;20498;-73
2024/03/14 00:17:32;;;;;;;10.52;5.00;;;;;;;-2.53;51.35;100838.19;4797809;29;20436;-76
2024/03/14 00:19:59;;;;;;;12.75;5.88;;;;;;;-2.73;51.83;100817.47;4799665;29;20077;-73
2024/03/14 00:22:26;;;;;;;13.32;5.15;;;;;;;-3.02;51.94;100783.44;4800785;29;20061;-73
2024/03/14 00:24:52;;;;;;;11.32;5.35;;;;;;;-3.45;52.07;100730.75;4785688;29;20046;-73
2024/03/14 00:27:19;;;;;;;10.63;4.90;;;;;;;-2.99;52.43;100798.91;4812276;29;20102;-73
2024/03/14 00:29:45;;;;;;;8.30;4.32;;;;;;;-3.03;52.72;100787.66;4798695;29;20119;-74
2024/03/14 00:32:11;;;;;;;12.52;5.07;;;;;;;-3.06;52.48;100768.75;4779241;29;20061;-74
2024/03/14 00:34:37;;;;;;;11.85;5.03;;;;;;;-3.30;52.63;100732.47;4785485;29;20055;-73
2024/03/14 00:37:03;;;;;;;11.50;5.07;;;;;;;-2.86;52.61;100808.19;4782998;29;20116;-73
2024/03/14 00:39:31;;;;;;;9.48;4.93;;;;;;;-3.22;53.11;100736.41;4800000;29;20123;-74
2024/03/14 00:41:58;;;;;;;14.30;5.20;;;;;;;-2.90;52.80;100803.69;4798330;29;20054;-73
2024/03/14 00:44:25;;;;;;;15.20;5.95;;;;;;;-3.01;52.86;100795.41;4799109;29;20050;-73
2024/03/14 00:46:51;;;;;;;11.75;5.45;;;;;;;-3.00;53.06;100797.16;4802892;29;20053;-74
2024/03/14 00:49:17;;;;;;;13.85;5.70;;;;;;;-2.94;52.99;100801.75;4799538;29;20055;-74
2024/03/14 00:51:44;;;;;;;15.15;5.43;;;;;;;-3.24;52.69;100750.69;4801182;29;20046;-73
2024/03/14 00:54:10;;;;;;;11.60;5.45;;;;;;;-2.91;53.09;100807.94;4786052;29;20062;-74
2024/03/14 00:56:36;;;;;;;14.57;5.80;;;;;;;-2.90;53.18;100807.13;4799781;29;20055;-74
2024/03/14 00:59:02;;;;;;;13.30;5.65;;;;;;;-2.99;52.81;100804.00;4783996;29;20046;-74
2024/03/14 01:01:28;;;;;;;11.77;5.45;;;;;;;-3.36;52.98;100740.63;4819572;29;20095;-74
2024/03/14 01:03:57;;;;;;;13.00;5.15;;;;;;;-3.08;52.96;100789.03;4817431;29;20464;-75
2024/03/14 01:06:24;;;;;;;12.95;5.82;;;;;;;-3.38;52.99;100743.06;4817707;29;20514;-73
2024/03/14 01:08:50;;;;;;;13.70;5.72;;;;;;;-3.24;52.69;100805.03;4790415;29;20501;-73
2024/03/14 01:11:20;;;;;;;12.38;5.55;;;;;;;-3.39;53.12;100786.25;4802058;29;20042;-73
2024/03/14 01:13:46;;;;;;;12.15;5.60;;;;;;;-3.43;53.44;100777.53;4804513;29;20046;-73
2024/03/14 01:16:13;;;;;;;14.57;6.03;;;;;;;-3.83;52.88;100716.47;4775024;29;20109;-73
2024/03/14 01:18:40;;;;;;;15.30;6.50;;;;;;;-3.46;53.49;100805.34;4803016;29;20053;-74
2024/03/14 01:21:09;;;;;;;13.55;6.13;;;;;;;-3.82;53.34;100733.50;4775377;29;20046;-75
2024/03/14 01:23:37;;;;;;;13.70;6.07;;;;;;;-3.51;53.27;100776.16;4803721;29;20057;-74
2024/03/14 01:26:06;;;;;;;16.85;6.25;;;;;;;-3.55;53.30;100769.13;4789771;29;20049;-76
2024/03/14 01:28:32;;;;;;;15.57;6.40;;;;;;;-3.70;53.54;100764.81;4783375;29;20044;-74
2024/03/14 01:30:59;;;;;;;11.52;5.82;;;;;;;-3.74;53.99;100762.84;4801449;29;20140;-74
2024/03/14 01:33:25;;;;;;;12.70;5.72;;;;;;;-3.83;53.67;100744.44;4815991;29;20050;-76
2024/03/14 01:35:54;;;;;;;16.45;6.65;;;;;;;-3.53;54.08;100788.78;4817319;29;20038;-74
2024/03/14 01:38:21;;;;;;;16.83;7.25;;;;;;;-3.81;53.95;100720.88;4802982;29;20050;-73
2024/03/14 01:40:50;;;;;;;15.68;7.03;;;;;;;-3.38;53.78;100793.09;4788428;29;20054;-75
2024/03/14 01:43:18;;;;;;;16.60;6.22;;;;;;;-3.47;54.07;100780.69;4803382;29;20604;-74
2024/03/14 01:45:47;;;;;;;18.42;7.03;;;;;;;-3.91;53.77;100721.06;4796748;29;20137;-73
2024/03/14 01:48:14;;;;;;;16.15;6.72;;;;;;;-3.54;53.07;100778.50;4800223;29;20050;-74
2024/03/14 01:50:41;;;;;;;17.77;6.55;;;;;;;-3.71;53.21;100775.78;4788220;29;21966;-73
2024/03/14 01:53:07;;;;;;;14.25;6.22;;;;;;;-3.76;53.75;100777.13;4815787;29;20038;-72
2024/03/14 01:55:33;;;;;;;17.92;7.30;;;;;;;-3.88;53.68;100758.56;4800287;29;20047;-74
2024/03/14 01:58:03;;;;;;;19.00;7.45;;;;;;;-4.04;53.98;100751.59;4800067;29;20058;-73
2024/03/14 02:00:40;;;;;;;17.30;6.65;;;;;;;-3.97;54.15;100774.09;4816742;29;20115;-73
2024/03/14 02:03:06;;;;;;;15.60;6.97;;;;;;;-3.98;54.82;100775.75;4774033;29;20140;-72
2024/03/14 02:05:45;;;;;;;13.57;6.50;;;;;;;-3.92;54.35;100772.72;4789220;29;20038;-72
2024/03/14 02:08:12;;;;;;;15.40;6.47;;;;;;;-3.97;54.48;100769.00;4801041;29;20072;-72
2024/03/14 02:10:39;;;;;;;16.73;7.15;;;;;;;-3.88;54.32;100764.50;4771040;29;20098;-70
2024/03/14 02:13:05;;;;;;;15.68;6.65;;;;;;;-4.05;54.06;100735.44;4813811;29;20069;-73
2024/03/14 02:15:34;;;;;;;16.35;6.63;;;;;;;-4.11;54.32;100745.22;4799142;29;20529;-71
2024/03/14 02:18:01;;;;;;;16.67;6.93;;;;;;;-3.90;55.26;100758.44;4787763;29;20079;-71
2024/03/14 02:20:29;;;;;;;17.55;7.10;;;;;;;-4.00;54.42;100738.28;4815916;29;20058;-72
2024/03/14 02:22:55;;;;;;;19.77;7.10;;;;;;;-3.78;55.04;100765.97;4800347;29;20057;-71
2024/03/14 02:25:22;;;;;;;17.67;6.47;;;;;;;-4.24;54.44;100706.28;4797345;29;20054;-71
2024/03/14 02:27:48;;;;;;;17.27;7.10;;;;;;;-3.90;54.94;100763.53;4788754;29;20050;-71
2024/03/14 02:30:14;;;;;;;17.35;6.95;;;;;;;-3.99;54.90;100751.09;4794258;29;20055;-72
2024/03/14 02:32:44;;;;;;;14.68;7.25;;;;;;;-3.92;54.90;100737.09;4782700;29;20054;-71
2024/03/14 02:35:10;;;;;;;16.60;7.38;;;;;;;-3.86;54.63;100739.19;4800981;29;20061;-71
2024/03/14 02:37:36;;;;;;;16.70;7.38;;;;;;;-3.97;54.88;100729.19;4814475;29;20137;-71
2024/03/14 02:40:05;;;;;;;14.60;7.28;;;;;;;-3.70;54.72;100759.72;4799041;29;20121;-71
2024/03/14 02:42:32;;;;;;;14.25;6.72;;;;;;;-3.89;54.55;100733.91;4803552;29;20067;-71
2024/03/14 02:45:00;;;;;;;19.58;7.88;;;;;;;-3.93;54.85;100735.34;4815456;29;20050;-72
2024/03/14 02:47:26;;;;;;;15.27;7.45;;;;;;;-3.95;54.86;100732.72;4799915;29;20042;-71
2024/03/14 02:49:52;;;;;;;23.60;8.70;;;;;;;-4.28;54.54;100694.13;4771908;29;20173;-71
2024/03/14 02:52:18;;;;;;;20.15;7.97;;;;;;;-3.94;54.52;100749.75;4799205;29;20057;-70
2024/03/14 02:54:45;;;;;;;18.52;8.55;;;;;;;-3.95;54.85;100753.06;4803308;29;20046;-71
2024/03/14 02:57:11;;;;;;;17.30;7.75;;;;;;;-3.91;54.79;100764.31;4799318;29;20482;-71
2024/03/14 02:59:38;;;;;;;16.55;7.22;;;;;;;-4.17;55.10;100724.47;4803683;29;20050;-72
2024/03/14 03:02:11;;;;;;;18.42;8.10;;;;;;;-4.46;54.83;100687.84;4805466;29;20065;-72
2024/03/14 03:04:40;;;;;;;17.40;7.75;;;;;;;-4.24;55.02;100729.16;4801753;29;20522;-72
2024/03/14 03:07:09;;;;;;;15.40;7.90;;;;;;;-4.17;54.78;100737.19;4804047;29;20046;-72
2024/03/14 03:09:38;;;;;;;16.27;7.72;;;;;;;-4.11;54.90;100750.31;4802551;29;20076;-73
2024/03/14 03:12:04;;;;;;;22.63;7.97;;;;;;;-4.09;54.73;100748.75;4817343;29;20073;-72
2024/03/14 03:14:31;;;;;;;26.48;7.82;;;;;;;-4.02;55.21;100770.38;4791848;29;20050;-71
2024/03/14 03:16:57;;;;;;;15.48;7.40;;;;;;;-4.09;54.53;100764.00;4806392;29;20045;-72
2024/03/14 03:19:23;;;;;;;17.92;8.15;;;;;;;-4.24;55.29;100739.31;4803577;29;20413;-73
2024/03/14 03:21:49;;;;;;;18.20;7.85;;;;;;;-4.08;55.32;100775.91;4805271;29;20046;-72
2024/03/14 03:24:15;;;;;;;20.65;9.10;;;;;;;-4.40;55.25;100712.00;4786179;29;20525;-71
2024/03/14 03:26:42;;;;;;;18.23;8.80;;;;;;;-4.29;55.13;100744.88;4788991;29;20058;-72
2024/03/14 03:29:08;;;;;;;22.00;9.32;;;;;;;-4.15;54.84;100761.06;4803199;29;20066;-72
2024/03/14 03:31:35;;;;;;;20.30;8.70;;;;;;;-4.33;54.51;100748.00;4788198;29;20410;-72
2024/03/14 03:34:01;;;;;;;25.95;10.30;;;;;;;-4.66;54.64;100704.34;4790635;29;20050;-73
2024/03/14 03:36:29;;;;;;;21.73;10.63;;;;;;;-4.40;55.21;100747.59;4803359;29;20518;-74
2024/03/14 03:38:56;;;;;;;19.02;8.93;;;;;;;-5.15;54.78;100642.72;4806460;29;20182;-73
2024/03/14 03:41:23;;;;;;;21.27;9.25;;;;;;;-4.48;54.97;100765.63;4817161;29;20131;-73
2024/03/14 03:43:50;;;;;;;23.02;9.27;;;;;;;-4.56;55.39;100737.19;4803988;29;20050;-73
2024/03/14 03:46:16;;;;;;;23.10;9.02;;;;;;;-4.54;55.06;100733.97;4804288;29;20050;-75
2024/03/14 03:48:42;;;;;;;23.52;9.50;;;;;;;-4.69;55.09;100702.44;4803328;29;20130;-74
2024/03/14 03:51:12;;;;;;;21.92;9.45;;;;;;;-4.74;54.64;100703.78;4804827;29;20549;-78
2024/03/14 03:53:38;;;;;;;24.30;9.38;;;;;;;-4.80;55.29;100744.91;4820980;29;20509;-74
2024/03/14 03:56:04;;;;;;;16.50;8.63;;;;;;;-4.87;55.71;100715.69;4804813;29;20042;-76
2024/03/14 03:58:32;;;;;;;20.60;8.60;;;;;;;-4.70;55.58;100731.16;4804767;29;20484;-72
2024/03/14 04:01:33;;;;;;;18.73;8.68;;;;;;;-4.57;55.85;100749.03;4804111;29;20561;-74
2024/03/14 04:03:55;;;;;;;20.60;8.45;;;;;;;-4.44;55.22;100757.44;4786812;29;20074;-75
2024/03/14 04:06:22;;;;;;;18.50;8.27;;;;;;;-4.50;55.89;100736.69;4817467;29;20111;-73
2024/03/14 04:08:48;;;;;;;20.45;8.57;;;;;;;-4.27;55.58;100763.66;4792697;29;20054;-73
2024/03/14 04:11:15;;;;;;;18.20;8.88;;;;;;;-4.34;55.79;100733.53;4795849;29;20053;-75
2024/03/14 04:13:41;;;;;;;18.73;8.85;;;;;;;-4.31;55.54;100736.28;4803342;29;20529;-76
2024/03/14 04:16:07;;;;;;;24.33;9.50;;;;;;;-4.12;55.68;100762.13;4775088;29;20142;-73
2024/03/14 04:18:34;;;;;;;21.15;8.45;;;;;;;-4.15;55.26;100738.16;4804141;29;20057;-74
2024/03/14 04:21:05;;;;;;;21.50;8.88;;;;;;;-4.09;55.34;100728.41;4803352;29;20133;-75
2024/03/14 04:23:32;;;;;;;26.20;9.50;;;;;;;-3.84;55.08;100746.13;4803465;29;20078;-74
2024/03/14 04:25:58;;;;;;;24.38;10.35;;;;;;;-3.76;54.80;100748.28;4776542;29;20513;-74
2024/03/14 04:28:25;;;;;;;25.48;10.40;;;;;;;-3.56;55.55;100772.44;4791358;29;20049;-74
2024/03/14 04:30:52;;;;;;;21.83;9.52;;;;;;;-3.40;55.46;100762.44;4806280;29;20077;-71
2024/03/14 04:33:19;;;;;;;19.92;9.70;;;;;;;-3.50;54.77;100702.44;4786679;29;20050;-72
2024/03/14 04:35:45;;;;;;;26.55;10.77;;;;;;;-2.89;54.98;100757.06;4787016;29;20513;-74
2024/03/14 04:38:12;;;;;;;27.60;10.25;;;;;;;-3.02;54.93;100676.47;4804693;29;20057;-75
2024/03/14 04:40:39;;;;;;;22.77;10.43;;;;;;;-2.56;54.39;100714.00;4805924;29;20149;-73
2024/03/14 04:43:07;;;;;;;24.55;10.52;;;;;;;-2.23;54.27;100720.97;4805266;29;20051;-73
2024/03/14 04:45:33;;;;;;;22.95;10.43;;;;;;;-1.88;53.56;100758.72;4804886;29;20046;-73
2024/03/14 04:48:04;;;;;;;31.58;14.30;;;;;;;-2.09;53.11;100691.13;4791457;29;20498;-75
2024/03/14 04:50:30;;;;;;;27.88;12.82;;;;;;;-1.67;53.90;100707.97;4791831;29;20490;-74
2024/03/14 04:52:57;;;;;;;23.60;10.88;;;;;;;-1.16;53.82;100691.06;4806582;29;20071;-78
2024/03/14 04:55:23;;;;;;;25.70;10.73;;;;;;;-0.32;53.43;100645.88;4807449;29;20095;-75
2024/03/14 04:57:53;;;;;;;24.05;10.68;;;;;;;0.73;52.94;100660.13;4791197;29;20038;-75
2024/03/14 05:02:55;;;;;;;24.00;10.75;;;;;;;3.88;51.30;100736.50;4801818;29;20065;-71
2024/03/14 05:05:21;;;;;;;25.52;10.68;;;;;;;5.19;49.51;100719.81;4786418;29;20098;-72
2024/03/14 05:07:48;;;;;;;21.90;11.32;;;;;;;6.41;48.25;100710.00;4815206;29;20053;-72
2024/03/14 05:10:18;;;;;;;19.58;10.80;;;;;;;7.44;46.27;100670.66;4804134;29;20042;-72
2024/03/14 05:12:45;;;;;;;23.48;11.40;;;;;;;8.66;44.52;100693.31;4816642;29;20062;-73
2024/03/14 05:15:12;;;;;;;22.30;11.32;;;;;;;9.42;42.68;100702.00;4794408;29;20074;-74
2024/03/14 05:17:41;;;;;;;21.67;11.25;;;;;;;10.37;41.70;100726.19;4773935;29;20070;-71
2024/03/14 05:20:10;;;;;;;23.95;12.70;;;;;;;11.18;40.01;100719.69;4812714;29;20146;-70
2024/03/14 05:22:38;;;;;;;26.80;12.63;;;;;;;11.61;38.43;100679.78;4797726;29;20053;-69
2024/03/14 05:25:11;;;;;;;20.90;12.27;;;;;;;12.31;37.34;100711.97;4796673;29;20054;-70
2024/03/14 05:27:37;;;;;;;20.42;11.45;;;;;;;12.89;36.39;100717.94;4798306;29;20137;-70
2024/03/14 05:30:05;;;;;;;26.50;12.75;;;;;;;13.32;34.99;100702.91;4801980;29;20153;-69
2024/03/14 05:32:34;;;;;;;21.67;12.55;;;;;;;14.07;34.60;100700.66;4800657;29;20103;-71
2024/03/14 05:35:00;;;;;;;20.77;13.40;;;;;;;14.68;33.09;100696.56;4787215;29;21002;-72
2024/03/14 05:37:26;;;;;;;19.55;12.63;;;;;;;15.04;31.89;100662.94;4803790;29;20054;-76
2024/03/14 05:39:53;;;;;;;19.23;12.30;;;;;;;15.54;31.05;100651.72;4789529;29;20042;-78
2024/03/14 05:42:19;;;;;;;20.90;12.35;;;;;;;16.42;30.61;100704.50;4798665;29;20047;-76
2024/03/14 05:44:47;;;;;;;21.33;12.38;;;;;;;16.64;29.58;100647.13;4804290;29;20046;-75
2024/03/14 05:47:14;;;;;;;18.15;12.50;;;;;;;17.24;28.59;100700.22;4786592;29;20050;-75
2024/03/14 05:49:40;;;;;;;17.63;12.38;;;;;;;17.16;28.21;100687.22;4799347;29;20042;-71
2024/03/14 05:52:06;;;;;;;18.92;12.18;;;;;;;16.89;27.68;100700.94;4815080;29;20069;-70
2024/03/14 05:54:32;;;;;;;18.42;12.07;;;;;;;16.83;27.44;100691.41;4818034;29;20540;-73
2024/03/14 05:56:58;;;;;;;18.23;11.88;;;;;;;16.76;26.98;100690.69;4816719;29;20054;-73
2024/03/14 05:59:24;;;;;;;19.77;12.40;;;;;;;17.24;26.54;100715.13;4788240;29;20180;-71
2024/03/14 06:01:53;;;;;;;18.65;11.95;;;;;;;17.34;26.34;100695.59;4815898;29;20101;-73
2024/03/14 06:04:21;;;;;;;20.80;11.93;;;;;;;17.33;25.81;100707.03;4798429;29;20726;-74
2024/03/14 06:06:48;;;;;;;19.42;11.27;;;;;;;17.67;25.55;100698.34;4785338;29;20156;-75
2024/03/14 06:09:15;;;;;;;17.88;11.60;;;;;;;17.45;25.03;100642.75;4804476;29;20049;-73
2024/03/14 06:11:45;;;;;;;18.05;12.15;;;;;;;17.04;25.26;100668.22;4805998;29;20078;-73
2024/03/14 06:14:14;;;;;;;17.77;11.50;;;;;;;17.09;25.04;100683.03;4812465;29;20127;-67
2024/03/14 06:16:41;;;;;;;17.25;11.57;;;;;;;16.75;24.96;100646.91;4777781;29;20064;-69
2024/03/14 06:19:08;;;;;;;18.65;11.13;;;;;;;17.14;25.15;100646.97;4800251;29;20046;-68
2024/03/14 06:21:45;;;;;;;18.90;10.38;;;;;;;18.19;24.83;100685.66;4784307;29;20054;-69
2024/03/14 06:24:11;;;;;;;16.58;11.55;;;;;;;18.58;24.19;100662.66;4813487;29;20046;-69
2024/03/14 06:26:38;;;;;;;18.63;11.73;;;;;;;18.48;24.20;100660.31;4814340;29;20053;-71
2024/03/14 06:29:04;;;;;;;16.13;10.73;;;;;;;18.60;23.95;100689.84;4796610;29;21717;-73
2024/03/14 06:31:30;;;;;;;19.73;11.77;;;;;;;18.90;23.36;100679.34;4816908;29;20057;-71
2024/03/14 06:33:56;;;;;;;17.48;12.30;;;;;;;19.04;23.38;100673.69;4815752;29;20047;-71
2024/03/14 06:36:23;;;;;;;19.17;11.95;;;;;;;19.42;23.31;100663.69;4790964;29;20218;-70
2024/03/14 06:38:51;;;;;;;19.77;12.30;;;;;;;20.53;23.29;100687.28;4792338;29;20510;-74
2024/03/14 06:41:17;;;;;;;19.70;12.25;;;;;;;21.37;22.40;100663.84;4785504;29;20057;-72
2024/03/14 06:43:43;;;;;;;20.58;13.13;;;;;;;21.45;21.73;100663.53;4794032;29;20065;-71
2024/03/14 06:46:12;;;;;;;15.32;11.95;;;;;;;20.87;21.39;100672.81;4783188;29;20047;-73
2024/03/14 06:48:38;;;;;;;16.27;11.70;;;;;;;20.55;21.89;100645.78;4785054;29;20051;-71
2024/03/14 06:51:05;;;;;;;18.83;11.95;;;;;;;20.95;22.03;100654.03;4793401;29;20050;-70
2024/03/14 06:53:32;;;;;;;18.80;12.35;;;;;;;21.41;21.55;100664.56;4780572;29;20129;-73
2024/03/14 06:55:58;;;;;;;17.90;11.93;;;;;;;21.24;21.11;100670.53;4798908;29;20140;-72
2024/03/14 06:58:26;;;;;;;16.23;11.35;;;;;;;20.96;21.46;100664.56;4797370;29;20125;-71
2024/03/14 07:00:55;;;;;;;14.85;10.98;;;;;;;20.91;21.62;100675.31;4781032;29;20058;-72
2024/03/14 07:03:22;;;;;;;15.18;11.07;;;;;;;21.56;20.98;100631.31;4779048;29;20046;-71
2024/03/14 07:05:49;;;;;;;18.20;11.27;;;;;;;22.58;20.76;100671.16;4778412;29;20375;-69
2024/03/14 07:08:15;;;;;;;16.48;11.23;;;;;;;22.56;20.12;100656.19;4794794;29;20050;-76
2024/03/14 07:10:42;;;;;;;19.38;11.07;;;;;;;23.01;20.40;100655.91;4786061;29;20813;-71
2024/03/14 07:13:11;;;;;;;20.17;11.35;;;;;;;23.58;19.98;100670.91;4783619;29;20058;-73
2024/03/14 07:15:39;;;;;;;17.10;11.65;;;;;;;23.35;19.13;100667.56;4813254;29;20506;-72
2024/03/14 07:18:05;;;;;;;15.95;12.10;;;;;;;23.48;19.61;100624.50;4797852;29;20058;-74
2024/03/14 07:20:36;;;;;;;17.13;10.63;;;;;;;24.06;19.62;100650.78;4797855;29;20078;-71
2024/03/14 07:23:02;;;;;;;15.65;10.75;;;;;;;23.88;18.90;100655.22;4801072;29;20050;-72
2024/03/14 07:25:28;;;;;;;16.05;10.65;;;;;;;24.41;19.43;100675.56;4787295;29;20107;-77
2024/03/14 07:27:55;;;;;;;16.80;11.75;;;;;;;24.79;19.26;100657.59;4811890;29;20060;-72
2024/03/14 07:30:24;;;;;;;16.00;11.27;;;;;;;25.70;18.77;100656.91;4773160;29;20074;-77
2024/03/14 07:32:52;;;;;;;17.20;10.93;;;;;;;25.79;17.21;100646.69;4800033;29;20097;-68
2024/03/14 07:35:18;;;;;;;15.98;10.75;;;;;;;24.96;18.25;100658.44;4787320;29;20051;-69
2024/03/14 07:37:47;;;;;;;15.75;10.23;;;;;;;25.02;18.00;100659.91;4802981;29;20480;-70
2024/03/14 07:40:16;;;;;;;13.27;9.65;;;;;;;25.43;18.69;100667.38;4799790;29;20050;-73
2024/03/14 07:42:44;;;;;;;15.30;10.30;;;;;;;25.89;17.85;100662.97;4800364;29;20578;-68
2024/03/14 07:45:17;;;;;;;16.02;10.18;;;;;;;26.25;18.05;100669.72;4813863;29;20050;-70
2024/03/14 07:47:44;;;;;;;18.17;11.40;;;;;;;26.94;17.50;100637.00;4818447;29;20051;-70
2024/03/14 07:50:10;;;;;;;14.27;10.55;;;;;;;28.04;17.39;100651.13;4800653;29;20051;-75
2024/03/14 07:52:36;;;;;;;15.48;10.38;;;;;;;29.08;16.98;100631.28;4800183;29;20090;-69
2024/03/14 07:55:06;;;;;;;15.52;10.70;;;;;;;28.77;16.17;100640.72;4804537;29;20418;-67
2024/03/14 07:57:36;;;;;;;18.30;11.27;;;;;;;28.59;16.01;100641.06;4817470;29;20074;-70
2024/03/14 08:00:09;;;;;;;12.80;10.32;;;;;;;28.90;16.54;100635.34;4818400;29;20062;-70
2024/03/14 08:02:39;;;;;;;12.23;9.80;;;;;;;28.67;16.19;100641.38;4815198;29;20054;-72
2024/03/14 08:05:08;;;;;;;14.50;10.02;;;;;;;28.53;16.18;100649.53;4816738;29;20042;-68
2024/03/14 08:07:37;;;;;;;13.85;10.32;;;;;;;28.69;16.59;100643.94;4790499;29;20042;-68
2024/03/14 08:10:08;;;;;;;14.93;10.50;;;;;;;29.00;15.95;100631.03;4798870;29;20087;-69
2024/03/14 08:12:35;;;;;;;12.95;9.27;;;;;;;29.97;16.04;100612.16;4813708;29;20046;-69
2024/03/14 08:15:16;;;;;;;13.45;10.43;;;;;;;30.73;15.40;100632.19;4788027;29;20038;-70
2024/03/14 08:17:47;;;;;;;16.13;10.68;;;;;;;31.51;14.92;100640.16;4797020;29;20047;-70
2024/03/14 08:20:15;;;;;;;12.38;10.02;;;;;;;32.23;15.30;100641.16;4787501;29;20050;-65
2024/03/14 08:22:43;;;;;;;14.07;10.32;;;;;;;32.61;15.01;100638.78;4801404;29;20561;-65
2024/03/14 08:25:19;;;;;;;14.07;10.82;;;;;;;33.17;14.41;100650.00;4796345;29;20070;-69
2024/03/14 08:27:46;;;;;;;13.30;10.38;;;;;;;33.46;14.75;100612.28;4796278;29;20062;-71
2024/03/14 08:30:13;;;;;;;15.65;10.43;;;;;;;33.83;14.33;100618.75;4799402;29;20046;-71
2024/03/14 08:32:40;;;;;;;17.25;11.20;;;;;;;34.61;14.15;100606.84;4797045;29;20515;-71
2024/03/14 08:35:06;;;;;;;14.77;10.35;;;;;;;34.62;13.67;100634.69;4801070;29;20031;-69
2024/03/14 08:37:33;;;;;;;13.30;10.35;;;;;;;34.14;13.45;100623.94;4783257;29;20059;-71
2024/03/14 08:40:00;;;;;;;12.85;9.82;;;;;;;33.75;13.70;100630.28;4802862;29;20581;-68
2024/03/14 08:42:32;;;;;;;14.20;10.38;;;;;;;34.00;13.75;100629.81;4791237;29;20138;-73
2024/03/14 08:44:59;;;;;;;12.98;9.70;;;;;;;34.18;13.52;100628.03;4801896;29;20508;-79
2024/03/14 08:47:25;;;;;;;12.50;9.77;;;;;;;34.00;13.21;100627.09;4770994;29;20080;-70
2024/03/14 08:49:51;;;;;;;11.45;8.55;;;;;;;33.07;13.08;100635.66;4785713;29;20834;-73
2024/03/14 08:52:17;;;;;;;12.27;8.90;;;;;;;31.45;12.88;100625.38;4796198;29;20046;-70
2024/03/14 08:54:46;;;;;;;13.20;9.32;;;;;;;30.38;13.62;100622.41;4784683;29;20038;-70
2024/03/14 08:57:16;;;;;;;12.48;8.48;;;;;;;31.05;14.27;100607.19;4811802;29;20050;-71
2024/03/14 08:59:42;;;;;;;12.77;9.00;;;;;;;31.10;14.12;100621.09;4813354;29;20129;-70
2024/03/14 09:02:09;;;;;;;11.45;8.15;;;;;;;31.02;13.90;100589.50;4792188;29;20471;-73
2024/03/14 09:04:36;;;;;;;11.05;8.02;;;;;;;31.33;14.22;100610.28;4795894;29;20601;-72
2024/03/14 09:07:02;;;;;;;10.88;8.02;;;;;;;31.01;14.14;100621.84;4786888;29;20080;-73
2024/03/14 09:09:34;;;;;;;11.68;7.32;;;;;;;31.59;14.30;100599.16;4799055;29;20532;-77
2024/03/14 09:12:35;;;;;;;11.80;7.55;;;;;;;31.02;14.14;100592.19;4800378;29;20077;-75
2024/03/14 09:14:56;;;;;;;10.60;7.68;;;;;;;30.80;14.64;100580.53;4784285;29;20047;-77
2024/03/14 09:17:26;;;;;;;10.07;7.55;;;;;;;30.91;14.74;100579.63;4798797;29;20039;-83
2024/03/14 09:19:52;;;;;;;10.05;8.15;;;;;;;31.30;14.73;100567.53;4776987;29;20050;-76
2024/03/14 09:22:18;;;;;;;8.70;7.43;;;;;;;32.29;14.89;100591.38;4796109;29;20061;-75
2024/03/14 09:24:44;;;;;;;13.18;7.88;;;;;;;32.53;14.80;100582.94;4796394;29;20498;-75
2024/03/14 09:27:11;;;;;;;9.38;7.78;;;;;;;32.95;14.31;100595.38;4794617;29;20058;-77
2024/03/14 09:29:37;;;;;;;12.50;8.75;;;;;;;33.16;13.90;100599.78;4796251;29;21218;-75
2024/03/14 09:32:05;;;;;;;12.82;9.68;;;;;;;31.94;13.85;100528.03;4779544;29;20517;-76
2024/03/14 09:34:32;;;;;;;11.02;8.98;;;;;;;32.10;14.36;100560.69;4796449;29;20175;-76
2024/03/14 09:36:58;;;;;;;12.82;9.57;;;;;;;32.73;14.03;100553.34;4784013;29;20049;-77
2024/03/14 09:39:24;;;;;;;12.75;9.77;;;;;;;32.17;13.83;100581.66;4799062;29;20475;-75
2024/03/14 09:41:51;;;;;;;10.75;9.13;;;;;;;30.95;13.52;100601.72;4783013;29;20050;-76
2024/03/14 09:44:23;;;;;;;11.07;8.80;;;;;;;29.67;14.77;100554.56;4765153;29;20042;-77
2024/03/14 09:47:02;;;;;;;14.57;9.55;;;;;;;31.03;15.32;100555.41;4783229;29;20073;-74
2024/03/14 09:49:30;;;;;;;12.90;9.30;;;;;;;31.17;14.56;100557.84;4773677;29;20042;-74
2024/03/14 09:51:59;;;;;;;11.73;9.05;;;;;;;32.10;14.59;100598.34;4780284;29;20128;-77
2024/03/14 09:54:31;;;;;;;11.52;9.05;;;;;;;31.10;13.86;100556.59;4782106;29;20141;-78
2024/03/14 09:57:01;;;;;;;13.52;10.10;;;;;;;28.82;14.33;100523.44;4771808;29;20177;-75
2024/03/14 09:59:27;;;;;;;12.32;9.02;;;;;;;28.04;14.58;100539.66;4769027;29;20422;-74
2024/03/14 10:01:54;;;;;;;13.70;8.82;;;;;;;28.11;15.78;100524.06;4794544;29;20403;-72
2024/03/14 10:04:21;;;;;;;10.93;8.60;;;;;;;28.18;15.40;100546.72;4789609;29;20073;-74
2024/03/14 10:06:48;;;;;;;10.35;7.95;;;;;;;27.34;14.55;100549.75;4793830;29;20417;-73
2024/03/14 10:09:15;;;;;;;10.88;7.78;;;;;;;27.21;16.18;100565.75;4772918;29;20415;-72
2024/03/14 10:11:44;;;;;;;10.80;7.80;;;;;;;28.16;15.58;100590.59;4780161;29;20068;-75
2024/03/14 10:14:16;;;;;;;10.32;7.30;;;;;;;27.50;14.42;100541.59;4777224;29;20073;-73
2024/03/14 10:16:45;;;;;;;9.57;7.80;;;;;;;28.06;15.86;100558.28;4784388;29;20047;-75
2024/03/14 10:19:15;;;;;;;9.32;7.40;;;;;;;28.49;15.36;100540.97;4785187;29;20058;-73
2024/03/14 10:21:43;;;;;;;9.55;7.50;;;;;;;26.80;14.62;100585.38;4767971;29;20058;-73
2024/03/14 10:24:16;;;;;;;14.25;11.00;;;;;;;23.87;15.94;100536.56;4764120;29;20061;-74
2024/03/14 10:26:44;;;;;;;9.88;7.60;;;;;;;22.29;16.68;100580.53;4792499;29;20101;-72
2024/03/14 10:29:13;;;;;;;13.05;8.02;;;;;;;20.71;17.42;100580.84;4794776;29;20046;-76
2024/03/14 10:31:45;;;;;;;11.63;7.83;;;;;;;18.52;18.67;100561.81;4782538;29;20140;-73
2024/03/14 10:34:14;;;;;;;16.00;7.40;;;;;;;17.97;19.72;100558.09;4779209;29;20145;-74
2024/03/14 10:36:44;;;;;;;13.77;7.40;;;;;;;17.94;19.79;100560.81;4768020;29;20062;-76
2024/03/14 10:39:14;;;;;;;11.10;7.03;;;;;;;16.82;20.23;100453.16;4768130;29;20047;-75
2024/03/14 10:41:47;;;;;;;10.93;6.50;;;;;;;16.58;20.62;100602.59;4768702;29;20043;-75
2024/03/14 10:44:18;;;;;;;10.73;6.70;;;;;;;15.40;21.42;100546.16;4796172;29;20513;-74
2024/03/14 10:46:52;;;;;;;9.80;6.63;;;;;;;15.04;22.00;100597.41;4785510;29;20146;-73
2024/03/14 10:49:19;;;;;;;10.38;6.40;;;;;;;13.93;22.16;100559.50;4793582;29;20059;-74
2024/03/14 10:51:49;;;;;;;12.30;7.43;;;;;;;13.24;22.72;100552.25;4782567;29;20062;-74
2024/03/14 10:54:23;;;;;;;11.15;6.80;;;;;;;12.98;23.82;100562.91;4794801;29;20324;-73
2024/03/14 10:56:50;;;;;;;11.40;6.47;;;;;;;12.80;24.77;100550.81;4794108;29;20569;-73
2024/03/14 10:59:20;;;;;;;11.38;6.28;;;;;;;13.13;24.71;100590.63;4793557;29;20169;-75
2024/03/14 11:02:05;;;;;;;10.10;6.50;;;;;;;12.69;24.70;100566.53;4794504;29;20510;-73
2024/03/14 11:04:32;;;;;;;11.70;6.35;;;;;;;12.33;25.17;100543.22;4779843;29;20047;-75
2024/03/14 11:07:03;;;;;;;11.75;6.07;;;;;;;11.79;25.68;100496.41;4782361;29;20054;-75
2024/03/14 11:09:33;;;;;;;9.75;6.05;;;;;;;12.01;25.06;100575.50;4798411;29;20050;-72
2024/03/14 11:12:04;;;;;;;10.02;6.03;;;;;;;11.51;25.98;100524.28;4798887;29;20047;-75
2024/03/14 11:14:39;;;;;;;10.05;5.63;;;;;;;11.71;26.00;100590.31;4798781;29;20042;-73
2024/03/14 11:17:10;;;;;;;11.30;6.03;;;;;;;10.89;26.44;100488.69;4810912;29;20057;-74
2024/03/14 11:19:40;;;;;;;10.50;6.47;;;;;;;11.09;27.06;100556.44;4814853;29;20046;-74